UKOO/ODS METAR and TAF weather

Enter ICAO airport designator
Station Type Date Time Source
UKOO METAR 2021/03/07 23:00 UTC NOAA

UKOO 072300Z 23003MPS CAVOK 01/M02 Q1016 R16/090060 NOSIG


Station Type Date Time Source
UKOO Decoded METAR 2021/03/07 23:00 UTC NOAA

Odesa, Ukraine (UKOO) 46-26N 030-46E 42M
Mar 07, 2021 - 06:00 PM EST / 2021.03.07 2300 UTC
Wind: from the SW (230 degrees) at 7 MPH (6 KT):0
Visibility: greater than 7 mile(s):0
Temperature: 33 F (1 C)
Windchill: 26 F (-3 C):1
Dew Point: 28 F (-2 C)
Relative Humidity: 80%
Pressure (altimeter): 30.00 in. Hg (1016 hPa)
ob: UKOO 072300Z 23003MPS CAVOK 01/M02 Q1016 R16/090060 NOSIG
cycle: 23

Station Type Date Time Source
UKOO TAF 2021/03/07 18:12 UTC NOAA

TAF UKOO 071704Z 0718/0818 21006G12MPS 2100 BR SCT004 BKN007 TX08/0812Z TNM03/0800Z PROB40
TEMPO 0801/0806 0300 FZFG VV002
BECMG 0806/0807 27003MPS 6000 NSW SCT010

Example: see airport list